Terminal Aerodrome Forecast
Issued by NWS

Home | Current Version | Previous Version | Text Only | Print | Product List | Glossary On
Versions: 1 2 3 4 5 6 7 8 9 10 11 12
700
FTUS44 KTSA 241720
TAFRVS
TAF
KRVS 241720Z 2418/2518 22006KT P6SM SCT250
     FM250200 16003KT P6SM SCT250
     FM251200 VRB03KT P6SM BKN050 PROB30 2512/2518 5SM -TSRA
      BKN050CB=

USA.gov is the U.S. government's official web portal to all federal, state and local government web resources and services.